createdAt,value
2023-05-25T00:00:32.636Z,4.81
2023-05-25T00:01:04.274Z,4.81
2023-05-25T00:01:35.740Z,4.81
2023-05-25T00:02:07.743Z,4.86
2023-05-25T00:02:35.131Z,4.86
2023-05-25T00:02:55.921Z,4.86
2023-05-25T00:03:27.771Z,4.96
2023-05-25T00:04:00.684Z,4.78
2023-05-25T00:04:31.751Z,4.78
2023-05-25T00:05:04.377Z,4.78
2023-05-25T00:05:35.679Z,4.78
2023-05-25T00:06:07.717Z,4.78
2023-05-25T00:06:34.825Z,4.78
2023-05-25T00:06:55.942Z,4.89
2023-05-25T00:07:27.716Z,4.89
2023-05-25T00:07:59.763Z,4.89
2023-05-25T00:08:31.770Z,4.89
2023-05-25T00:09:04.156Z,4.89
2023-05-25T00:09:35.724Z,4.89
2023-05-25T00:10:08.089Z,4.89
2023-05-25T00:10:34.852Z,4.89
2023-05-25T00:10:55.950Z,4.89
2023-05-25T00:11:27.737Z,4.89
2023-05-25T00:11:59.753Z,4.89
2023-05-25T00:12:31.695Z,4.89
2023-05-25T00:13:04.160Z,4.89
2023-05-25T00:13:36.418Z,4.89
2023-05-25T00:14:07.716Z,4.89
2023-05-25T00:14:34.860Z,4.89
2023-05-25T00:14:55.768Z,4.89
2023-05-25T00:15:28.257Z,4.89
2023-05-25T00:15:59.789Z,4.89
2023-05-25T00:16:31.841Z,4.89
2023-05-25T00:17:04.353Z,4.89
2023-05-25T00:17:36.100Z,4.89
2023-05-25T00:18:07.793Z,4.89
2023-05-25T00:18:34.846Z,4.89
2023-05-25T00:18:55.732Z,4.89
2023-05-25T00:19:27.702Z,4.89
2023-05-25T00:20:02.228Z,4.89
2023-05-25T00:20:31.705Z,4.78
2023-05-25T00:21:04.296Z,4.78
2023-05-25T00:21:35.736Z,4.78
2023-05-25T00:22:07.700Z,4.78
2023-05-25T00:22:34.838Z,4.78
2023-05-25T00:22:55.761Z,4.96
2023-05-25T00:23:27.705Z,4.96
2023-05-25T00:23:59.744Z,4.96
2023-05-25T00:24:31.728Z,4.96
2023-05-25T00:25:04.455Z,4.96
2023-05-25T00:25:35.960Z,4.96
2023-05-25T00:26:07.701Z,4.96
2023-05-25T00:26:34.850Z,4.96
2023-05-25T00:26:55.736Z,4.96
2023-05-25T00:27:27.656Z,4.96
2023-05-25T00:27:59.754Z,4.96
2023-05-25T00:28:31.704Z,4.96
2023-05-25T00:29:04.409Z,4.96
2023-05-25T00:29:36.677Z,4.96
2023-05-25T00:30:08.291Z,4.96
2023-05-25T00:30:34.861Z,4.96
2023-05-25T00:30:56.055Z,4.96
2023-05-25T00:31:27.763Z,4.96
2023-05-25T00:31:59.764Z,4.96
2023-05-25T00:32:31.733Z,4.96
2023-05-25T00:33:04.252Z,4.96
2023-05-25T00:33:35.696Z,4.96
2023-05-25T00:34:07.734Z,4.96
2023-05-25T00:34:34.840Z,4.96
2023-05-25T00:34:55.706Z,4.96
2023-05-25T00:35:27.966Z,4.96
2023-05-25T00:36:00.542Z,4.96
2023-05-25T00:36:31.721Z,5.03
2023-05-25T00:37:04.265Z,5.03
2023-05-25T00:37:35.679Z,5.03
2023-05-25T00:38:07.670Z,5.03
2023-05-25T00:38:34.833Z,5.03
2023-05-25T00:38:55.729Z,5.03
2023-05-25T00:39:27.729Z,5.03
2023-05-25T00:40:00.045Z,5.03
2023-05-25T00:40:32.402Z,4.99
2023-05-25T00:41:04.572Z,4.99
2023-05-25T00:41:35.809Z,4.99
2023-05-25T00:42:08.630Z,4.99
2023-05-25T00:42:34.890Z,4.99
2023-05-25T00:42:56.744Z,4.99
2023-05-25T00:43:27.824Z,4.99
2023-05-25T00:44:00.229Z,4.99
2023-05-25T00:44:31.954Z,4.99
2023-05-25T00:45:05.236Z,4.99
2023-05-25T00:45:36.935Z,4.99
2023-05-25T00:46:08.131Z,4.99
2023-05-25T00:46:35.082Z,4.99
2023-05-25T00:46:56.055Z,4.99
2023-05-25T00:47:27.935Z,4.99
2023-05-25T00:47:59.958Z,4.99
2023-05-25T00:48:31.763Z,4.99
2023-05-25T00:49:04.343Z,4.99
2023-05-25T00:49:35.758Z,4.99
2023-05-25T00:50:08.234Z,4.99
2023-05-25T00:50:34.969Z,4.99
2023-05-25T00:50:56.046Z,4.99
2023-05-25T00:51:27.716Z,4.99
2023-05-25T00:52:00.713Z,4.99
2023-05-25T00:52:31.879Z,4.99
2023-05-25T00:53:04.370Z,4.99
2023-05-25T00:53:35.902Z,4.99
2023-05-25T00:54:07.742Z,4.99
2023-05-25T00:54:35.366Z,4.99
2023-05-25T00:54:55.825Z,4.99
2023-05-25T00:55:28.073Z,4.99
2023-05-25T00:55:59.800Z,4.99
2023-05-25T00:56:31.774Z,4.99
2023-05-25T00:57:04.356Z,4.99
2023-05-25T00:57:35.820Z,4.99
2023-05-25T00:58:07.720Z,4.99
2023-05-25T00:58:34.874Z,4.99
2023-05-25T00:58:55.780Z,4.99
2023-05-25T00:59:27.753Z,4.99
2023-05-25T00:59:59.842Z,4.99
2023-05-25T01:00:32.285Z,4.99
2023-05-25T01:01:04.393Z,4.99
2023-05-25T01:01:36.692Z,4.99
2023-05-25T01:02:07.851Z,4.99
2023-05-25T01:02:35.536Z,4.99
2023-05-25T01:02:55.928Z,4.99
2023-05-25T01:03:27.981Z,4.99
2023-05-25T01:03:59.881Z,4.99
2023-05-25T01:04:31.770Z,4.99
2023-05-25T01:05:04.635Z,4.99
2023-05-25T01:05:35.760Z,4.99
2023-05-25T01:06:07.758Z,4.99
2023-05-25T01:06:35.486Z,4.88
2023-05-25T01:06:55.725Z,5.06
2023-05-25T01:07:27.788Z,5.06
2023-05-25T01:08:00.583Z,5.06
2023-05-25T01:08:31.738Z,5.06
2023-05-25T01:09:04.364Z,5.06
2023-05-25T01:09:35.852Z,5.06
2023-05-25T01:10:08.004Z,5.06
2023-05-25T01:10:34.862Z,5.06
2023-05-25T01:10:56.164Z,5.06
2023-05-25T01:11:27.763Z,5.06
2023-05-25T01:11:59.812Z,5.06
2023-05-25T01:12:31.769Z,5.06
2023-05-25T01:13:04.449Z,5.06
2023-05-25T01:13:35.741Z,5.06
2023-05-25T01:14:07.775Z,5.06
2023-05-25T01:14:34.870Z,5.06
2023-05-25T01:14:55.732Z,5.06
2023-05-25T01:15:28.282Z,5.06
2023-05-25T01:15:59.813Z,5.06
2023-05-25T01:16:31.782Z,5.06
2023-05-25T01:17:04.339Z,5.06
2023-05-25T01:17:37.450Z,5.06
2023-05-25T01:18:07.704Z,4.95
2023-05-25T01:18:34.830Z,4.95
2023-05-25T01:18:55.766Z,4.95
2023-05-25T01:19:27.705Z,4.95
2023-05-25T01:20:09.773Z,4.95
2023-05-25T01:20:32.368Z,5.06
2023-05-25T01:21:04.375Z,5.23
2023-05-25T01:21:36.015Z,5.23
2023-05-25T01:22:07.904Z,5.13
2023-05-25T01:22:35.377Z,5.13
2023-05-25T01:22:55.716Z,5.13
2023-05-25T01:23:27.747Z,5.13
2023-05-25T01:24:00.524Z,5.13
2023-05-25T01:24:31.758Z,5.13
2023-05-25T01:25:04.901Z,5.13
2023-05-25T01:25:36.030Z,5.13
2023-05-25T01:26:07.746Z,5.13
2023-05-25T01:26:34.890Z,5.13
2023-05-25T01:26:55.791Z,5.13
2023-05-25T01:27:27.781Z,5.01
2023-05-25T01:27:59.770Z,5.01
2023-05-25T01:28:31.791Z,5.01
2023-05-25T01:29:04.314Z,4.90
2023-05-25T01:29:35.988Z,4.90
2023-05-25T01:30:08.337Z,4.90
2023-05-25T01:30:35.307Z,4.90
2023-05-25T01:30:56.028Z,4.90
2023-05-25T01:31:27.793Z,4.90
2023-05-25T01:32:00.164Z,4.90
2023-05-25T01:32:31.792Z,5.07
2023-05-25T01:33:04.297Z,4.90
2023-05-25T01:33:37.182Z,4.90
2023-05-25T01:34:07.707Z,4.90
2023-05-25T01:34:34.807Z,4.90
2023-05-25T01:34:55.714Z,4.90
2023-05-25T01:35:28.001Z,4.90
2023-05-25T01:35:59.784Z,5.07
2023-05-25T01:36:31.721Z,4.90
2023-05-25T01:37:04.291Z,4.90
2023-05-25T01:37:35.691Z,4.90
2023-05-25T01:38:07.692Z,4.90
2023-05-25T01:38:34.926Z,4.90
2023-05-25T01:38:55.698Z,4.90
2023-05-25T01:39:27.693Z,4.90
2023-05-25T01:40:08.868Z,4.90
2023-05-25T01:40:31.915Z,4.90
2023-05-25T01:41:04.344Z,4.85
2023-05-25T01:41:35.690Z,4.85
2023-05-25T01:42:07.668Z,4.85
2023-05-25T01:42:35.243Z,4.85
2023-05-25T01:42:55.700Z,4.85
2023-05-25T01:43:28.257Z,5.02
2023-05-25T01:43:59.761Z,5.02
2023-05-25T01:44:31.741Z,5.02
2023-05-25T01:45:04.778Z,5.02
2023-05-25T01:45:35.772Z,5.02
2023-05-25T01:46:07.924Z,5.02
2023-05-25T01:46:35.581Z,5.02
2023-05-25T01:46:55.692Z,5.02
2023-05-25T01:47:27.703Z,5.02
2023-05-25T01:47:59.759Z,5.02
2023-05-25T01:48:31.712Z,5.02
2023-05-25T01:49:04.176Z,5.02
2023-05-25T01:49:36.178Z,5.02
2023-05-25T01:50:07.984Z,5.02
2023-05-25T01:50:34.819Z,5.02
2023-05-25T01:50:55.947Z,5.02
2023-05-25T01:51:27.686Z,5.02
2023-05-25T01:51:59.751Z,5.02
2023-05-25T01:52:31.781Z,5.02
2023-05-25T01:53:04.312Z,5.02
2023-05-25T01:53:35.695Z,5.02
2023-05-25T01:54:07.712Z,4.91
2023-05-25T01:54:34.823Z,4.91
2023-05-25T01:54:55.746Z,4.91
2023-05-25T01:55:27.934Z,4.91
2023-05-25T01:56:00.423Z,4.91
2023-05-25T01:56:31.753Z,4.91
2023-05-25T01:57:04.232Z,5.02
2023-05-25T01:57:35.715Z,4.91
2023-05-25T01:58:07.676Z,4.91
2023-05-25T01:58:34.818Z,4.91
2023-05-25T01:58:55.719Z,4.91
2023-05-25T01:59:27.673Z,4.91
2023-05-25T01:59:59.737Z,4.91
2023-05-25T02:00:32.273Z,4.91
2023-05-25T02:01:04.320Z,4.91
2023-05-25T02:01:35.737Z,4.91
2023-05-25T02:02:07.682Z,4.91
2023-05-25T02:02:34.912Z,4.91
2023-05-25T02:02:55.723Z,4.91
2023-05-25T02:03:27.677Z,4.80
2023-05-25T02:03:59.758Z,4.80
2023-05-25T02:04:31.745Z,4.80
2023-05-25T02:05:04.516Z,4.80
2023-05-25T02:05:36.342Z,4.80
2023-05-25T02:06:07.670Z,4.80
2023-05-25T02:06:34.778Z,4.80
2023-05-25T02:06:55.723Z,4.80
2023-05-25T02:07:27.698Z,4.80
2023-05-25T02:07:59.766Z,4.80
2023-05-25T02:08:31.688Z,4.80
2023-05-25T02:09:04.244Z,4.80
2023-05-25T02:09:35.746Z,4.80
2023-05-25T02:10:08.017Z,4.98
2023-05-25T02:10:34.838Z,4.98
2023-05-25T02:10:55.955Z,4.98
2023-05-25T02:11:27.682Z,4.98
2023-05-25T02:12:00.446Z,4.98
2023-05-25T02:12:31.705Z,4.98
2023-05-25T02:13:04.259Z,4.98
2023-05-25T02:13:35.978Z,4.98
2023-05-25T02:14:07.695Z,4.80
2023-05-25T02:14:35.311Z,4.98
2023-05-25T02:14:55.691Z,4.80
2023-05-25T02:15:28.217Z,4.80
2023-05-25T02:15:59.803Z,4.80
2023-05-25T02:16:31.778Z,4.91
2023-05-25T02:17:04.268Z,4.91
2023-05-25T02:17:35.782Z,4.91
2023-05-25T02:18:07.740Z,4.91
2023-05-25T02:18:34.828Z,4.91
2023-05-25T02:18:55.668Z,4.91
2023-05-25T02:19:27.683Z,4.91
2023-05-25T02:19:59.719Z,4.91
2023-05-25T02:20:32.029Z,4.91
2023-05-25T02:21:04.321Z,4.91
2023-05-25T02:21:36.214Z,4.91
2023-05-25T02:22:07.705Z,4.91
2023-05-25T02:22:35.414Z,4.91
2023-05-25T02:22:55.726Z,4.91
2023-05-25T02:23:27.668Z,4.91
2023-05-25T02:24:00.059Z,4.91
2023-05-25T02:24:31.731Z,4.91
2023-05-25T02:25:04.580Z,4.91
2023-05-25T02:25:35.671Z,4.91
2023-05-25T02:26:07.737Z,4.91
2023-05-25T02:26:34.821Z,4.91
2023-05-25T02:26:55.735Z,4.91
2023-05-25T02:27:27.678Z,4.91
2023-05-25T02:28:00.450Z,4.80
2023-05-25T02:28:31.684Z,4.80
2023-05-25T02:29:04.206Z,4.80
2023-05-25T02:29:35.673Z,4.80
2023-05-25T02:30:08.293Z,4.80
2023-05-25T02:30:34.863Z,4.80
2023-05-25T02:30:56.047Z,4.80
2023-05-25T02:31:27.758Z,4.80
2023-05-25T02:31:59.688Z,4.80
2023-05-25T02:32:31.830Z,4.80
2023-05-25T02:33:04.349Z,4.80
2023-05-25T02:33:35.675Z,4.80
2023-05-25T02:34:07.721Z,4.80
2023-05-25T02:34:34.835Z,4.80
2023-05-25T02:34:55.713Z,4.80
2023-05-25T02:35:27.969Z,4.80
2023-05-25T02:35:59.699Z,4.80
2023-05-25T02:36:31.704Z,4.80
2023-05-25T02:37:04.241Z,4.80
2023-05-25T02:37:36.382Z,4.80
2023-05-25T02:38:07.685Z,4.80
2023-05-25T02:38:35.103Z,4.80
2023-05-25T02:38:55.710Z,4.80
2023-05-25T02:39:27.743Z,4.80
2023-05-25T02:39:59.723Z,4.80
2023-05-25T02:40:31.990Z,4.80
2023-05-25T02:41:04.309Z,4.80
2023-05-25T02:41:35.702Z,4.80
2023-05-25T02:42:07.674Z,4.80
2023-05-25T02:42:34.842Z,4.80
2023-05-25T02:42:55.707Z,4.80
2023-05-25T02:43:27.684Z,4.80
2023-05-25T02:44:00.338Z,4.80
2023-05-25T02:44:31.682Z,4.80
2023-05-25T02:45:04.774Z,4.80
2023-05-25T02:45:35.711Z,4.80
2023-05-25T02:46:07.871Z,4.80
2023-05-25T02:46:34.830Z,4.80
2023-05-25T02:46:55.785Z,4.80
2023-05-25T02:47:27.750Z,4.68
2023-05-25T02:47:59.740Z,4.68
2023-05-25T02:48:31.728Z,4.86
2023-05-25T02:49:04.285Z,4.68
2023-05-25T02:49:36.009Z,4.68
2023-05-25T02:50:07.971Z,4.68
2023-05-25T02:50:34.850Z,4.68
2023-05-25T02:50:55.962Z,4.58
2023-05-25T02:51:27.804Z,4.58
2023-05-25T02:51:59.760Z,4.75
2023-05-25T02:52:31.996Z,4.75
2023-05-25T02:53:04.285Z,4.75
2023-05-25T02:53:36.181Z,4.75
2023-05-25T02:54:07.670Z,4.75
2023-05-25T02:54:35.402Z,4.75
2023-05-25T02:54:55.719Z,4.93
2023-05-25T02:55:27.972Z,4.75
2023-05-25T02:55:59.709Z,4.70
2023-05-25T02:56:31.701Z,4.70
2023-05-25T02:57:04.315Z,4.88
2023-05-25T02:57:35.678Z,4.88
2023-05-25T02:58:07.702Z,4.88
2023-05-25T02:58:34.840Z,4.88
2023-05-25T02:58:55.718Z,4.60
2023-05-25T02:59:27.664Z,4.60
2023-05-25T03:00:02.346Z,4.77
2023-05-25T03:00:31.709Z,4.77
2023-05-25T03:01:05.202Z,4.77
2023-05-25T03:01:35.752Z,4.66
2023-05-25T03:02:07.717Z,4.49
2023-05-25T03:02:34.857Z,4.49
2023-05-25T03:02:55.819Z,4.49
2023-05-25T03:03:27.758Z,4.37
2023-05-25T03:03:59.771Z,4.26
2023-05-25T03:04:31.708Z,4.21
2023-05-25T03:05:04.898Z,4.21
2023-05-25T03:05:36.023Z,4.28
2023-05-25T03:06:07.707Z,4.17
2023-05-25T03:06:35.103Z,4.17
2023-05-25T03:06:55.686Z,4.17
2023-05-25T03:07:27.813Z,4.17
2023-05-25T03:07:59.706Z,4.06
2023-05-25T03:08:31.717Z,4.22
2023-05-25T03:09:04.325Z,4.22
2023-05-25T03:09:36.072Z,4.22
2023-05-25T03:10:07.993Z,4.22
2023-05-25T03:10:34.818Z,4.22
2023-05-25T03:10:55.991Z,4.22
2023-05-25T03:11:27.699Z,4.11
2023-05-25T03:11:59.715Z,4.06
2023-05-25T03:12:31.711Z,4.22
2023-05-25T03:13:04.282Z,4.22
2023-05-25T03:13:35.721Z,4.22
2023-05-25T03:14:07.730Z,4.22
2023-05-25T03:14:34.800Z,4.22
2023-05-25T03:14:55.671Z,4.22
2023-05-25T03:15:28.185Z,4.12
2023-05-25T03:16:00.777Z,4.12
2023-05-25T03:16:31.752Z,4.12
2023-05-25T03:17:04.417Z,4.12
2023-05-25T03:17:35.858Z,4.12
2023-05-25T03:18:07.710Z,4.12
2023-05-25T03:18:34.812Z,4.01
2023-05-25T03:18:55.715Z,4.01
2023-05-25T03:19:27.728Z,4.01
2023-05-25T03:19:59.770Z,4.01
2023-05-25T03:20:32.074Z,3.89
2023-05-25T03:21:04.245Z,4.05
2023-05-25T03:21:35.710Z,4.05
2023-05-25T03:22:07.738Z,4.05
2023-05-25T03:22:34.821Z,4.17
2023-05-25T03:22:55.688Z,4.17
2023-05-25T03:23:27.653Z,4.17
2023-05-25T03:23:59.711Z,4.17
2023-05-25T03:24:31.673Z,4.17
2023-05-25T03:25:04.492Z,4.17
2023-05-25T03:25:36.648Z,4.17
2023-05-25T03:26:07.678Z,4.05
2023-05-25T03:26:35.201Z,4.05
2023-05-25T03:26:55.722Z,4.05
2023-05-25T03:27:27.663Z,4.05
2023-05-25T03:27:59.838Z,4.05
2023-05-25T03:28:31.704Z,4.05
2023-05-25T03:29:04.307Z,4.05
2023-05-25T03:29:35.845Z,4.05
2023-05-25T03:30:08.720Z,4.05
2023-05-25T03:30:34.857Z,4.05
2023-05-25T03:30:56.086Z,3.94
2023-05-25T03:31:27.818Z,3.94
2023-05-25T03:32:00.418Z,3.94
2023-05-25T03:32:31.926Z,3.94
2023-05-25T03:33:04.437Z,3.94
2023-05-25T03:33:35.830Z,3.94
2023-05-25T03:34:07.848Z,4.05
2023-05-25T03:34:34.897Z,4.05
2023-05-25T03:34:55.810Z,4.05
2023-05-25T03:35:28.171Z,4.05
2023-05-25T03:35:59.834Z,4.05
2023-05-25T03:36:31.793Z,3.94
2023-05-25T03:37:04.398Z,3.94
2023-05-25T03:37:35.866Z,3.89
2023-05-25T03:38:07.840Z,3.89
2023-05-25T03:38:34.966Z,3.89
2023-05-25T03:38:55.805Z,3.79
2023-05-25T03:39:27.821Z,3.79
2023-05-25T03:39:59.821Z,3.84
2023-05-25T03:40:32.082Z,3.68
2023-05-25T03:41:04.423Z,3.68
2023-05-25T03:41:36.541Z,3.68
2023-05-25T03:42:07.793Z,3.68
2023-05-25T03:42:34.962Z,3.68
2023-05-25T03:42:55.874Z,3.84
2023-05-25T03:43:27.827Z,3.84
2023-05-25T03:43:59.843Z,3.84
2023-05-25T03:44:32.222Z,3.95
2023-05-25T03:45:05.234Z,3.95
2023-05-25T03:45:35.857Z,3.95
2023-05-25T03:46:08.095Z,3.95
2023-05-25T03:46:35.146Z,4.06
2023-05-25T03:46:55.879Z,4.06
2023-05-25T03:47:27.782Z,4.06
2023-05-25T03:48:00.395Z,4.06
2023-05-25T03:48:32.236Z,4.11
2023-05-25T03:49:04.360Z,4.11
2023-05-25T03:49:35.855Z,4.11
2023-05-25T03:50:08.108Z,3.94
2023-05-25T03:50:35.260Z,3.94
2023-05-25T03:50:56.068Z,3.94
2023-05-25T03:51:27.785Z,3.89
2023-05-25T03:51:59.838Z,3.79
2023-05-25T03:52:31.850Z,3.79
2023-05-25T03:53:04.393Z,3.79
2023-05-25T03:53:35.982Z,3.95
2023-05-25T03:54:07.803Z,3.95
2023-05-25T03:54:35.325Z,3.95
2023-05-25T03:54:55.811Z,4.06
2023-05-25T03:55:28.064Z,4.11
2023-05-25T03:55:59.822Z,4.11
2023-05-25T03:56:31.785Z,4.11
2023-05-25T03:57:04.380Z,4.11
2023-05-25T03:57:36.753Z,4.06
2023-05-25T03:58:07.770Z,3.89
2023-05-25T03:58:35.493Z,3.89
2023-05-25T03:58:55.832Z,3.89
2023-05-25T03:59:27.808Z,3.89
2023-05-25T03:59:59.865Z,3.89
2023-05-25T04:00:32.360Z,3.89
2023-05-25T04:01:05.234Z,3.89
2023-05-25T04:01:35.840Z,3.79
2023-05-25T04:02:07.367Z,3.79
2023-05-25T04:02:34.897Z,3.79
2023-05-25T04:02:55.374Z,3.68
2023-05-25T04:03:27.383Z,3.68
2023-05-25T04:03:59.931Z,3.68
2023-05-25T04:04:31.340Z,3.56
2023-05-25T04:05:03.929Z,3.56
2023-05-25T04:05:35.208Z,3.84
2023-05-25T04:06:07.217Z,3.68
2023-05-25T04:06:35.014Z,3.68
2023-05-25T04:06:55.956Z,3.56
2023-05-25T04:07:28.060Z,3.56
2023-05-25T04:08:00.217Z,3.84
2023-05-25T04:08:32.014Z,3.68
2023-05-25T04:09:03.889Z,3.68
2023-05-25T04:09:35.814Z,3.68
2023-05-25T04:10:08.086Z,3.68
2023-05-25T04:10:34.974Z,3.68
2023-05-25T04:10:56.321Z,3.68
2023-05-25T04:11:27.825Z,3.68
2023-05-25T04:11:59.801Z,3.68
2023-05-25T04:12:32.020Z,3.68
2023-05-25T04:13:03.843Z,3.68
2023-05-25T04:13:36.489Z,3.68
2023-05-25T04:14:07.836Z,3.68
2023-05-25T04:14:34.904Z,3.68
2023-05-25T04:14:55.788Z,3.68
2023-05-25T04:15:28.411Z,3.68
2023-05-25T04:15:59.918Z,3.84
2023-05-25T04:16:32.088Z,3.68
2023-05-25T04:17:03.868Z,3.95
2023-05-25T04:17:38.981Z,3.95
2023-05-25T04:18:07.876Z,3.95
2023-05-25T04:18:34.871Z,3.95
2023-05-25T04:18:55.773Z,3.89
2023-05-25T04:19:27.894Z,3.89
2023-05-25T04:20:01.383Z,3.89
2023-05-25T04:20:32.110Z,3.89
2023-05-25T04:21:03.909Z,3.89
2023-05-25T04:21:35.824Z,3.89
2023-05-25T04:22:07.773Z,3.89
2023-05-25T04:22:34.921Z,3.89
2023-05-25T04:22:56.013Z,3.89
2023-05-25T04:23:27.854Z,3.89
2023-05-25T04:23:59.892Z,3.89
2023-05-25T04:24:32.198Z,3.89
2023-05-25T04:25:04.196Z,3.89
2023-05-25T04:25:35.855Z,3.89
2023-05-25T04:26:07.856Z,4.06
2023-05-25T04:26:34.942Z,3.89
2023-05-25T04:26:55.757Z,3.89
2023-05-25T04:27:27.829Z,3.89
2023-05-25T04:27:59.825Z,3.89
2023-05-25T04:28:32.059Z,4.06
2023-05-25T04:29:03.897Z,3.89
2023-05-25T04:29:36.536Z,3.89
2023-05-25T04:30:08.402Z,3.89
2023-05-25T04:30:35.742Z,3.89
2023-05-25T04:30:56.086Z,3.89
2023-05-25T04:31:28.099Z,3.89
2023-05-25T04:31:59.955Z,3.89
2023-05-25T04:32:32.287Z,3.89
2023-05-25T04:33:03.897Z,3.89
2023-05-25T04:33:35.951Z,3.89
2023-05-25T04:34:07.797Z,3.89
2023-05-25T04:34:34.904Z,3.89
2023-05-25T04:34:55.822Z,4.06
2023-05-25T04:35:28.223Z,4.06
2023-05-25T04:36:00.589Z,4.06
2023-05-25T04:36:32.249Z,3.94
2023-05-25T04:37:03.900Z,4.11
2023-05-25T04:37:36.094Z,3.94
2023-05-25T04:38:07.830Z,3.94
2023-05-25T04:38:34.930Z,4.11
2023-05-25T04:38:55.802Z,3.94
2023-05-25T04:39:27.858Z,4.11
2023-05-25T04:40:00.012Z,4.11
2023-05-25T04:40:32.448Z,4.11
2023-05-25T04:41:03.888Z,4.21
2023-05-25T04:41:35.850Z,4.21
2023-05-25T04:42:07.791Z,4.21
2023-05-25T04:42:34.977Z,4.21
2023-05-25T04:42:55.833Z,4.33
2023-05-25T04:43:27.806Z,4.33
2023-05-25T04:44:09.129Z,4.33
2023-05-25T04:44:32.171Z,4.33
2023-05-25T04:45:04.462Z,4.28
2023-05-25T04:45:36.739Z,4.28
2023-05-25T04:46:08.071Z,4.17
2023-05-25T04:46:34.923Z,4.17
2023-05-25T04:46:55.793Z,4.17
2023-05-25T04:47:27.885Z,4.17
2023-05-25T04:47:59.977Z,4.17
2023-05-25T04:48:32.096Z,4.05
2023-05-25T04:49:03.905Z,4.05
2023-05-25T04:49:36.456Z,3.94
2023-05-25T04:50:08.339Z,3.94
2023-05-25T04:50:34.995Z,3.94
2023-05-25T04:50:56.092Z,4.11
2023-05-25T04:51:27.830Z,4.11
2023-05-25T04:52:00.645Z,4.11
2023-05-25T04:52:32.213Z,4.11
2023-05-25T04:53:03.913Z,4.11
2023-05-25T04:53:35.777Z,4.11
2023-05-25T04:54:07.825Z,4.21
2023-05-25T04:54:35.299Z,4.33
2023-05-25T04:54:55.808Z,4.33
2023-05-25T04:55:28.312Z,4.33
2023-05-25T04:55:59.872Z,4.48
2023-05-25T04:56:32.224Z,4.44
2023-05-25T04:57:03.905Z,4.44
2023-05-25T04:57:35.830Z,4.44
2023-05-25T04:58:07.843Z,4.44
2023-05-25T04:58:34.892Z,4.44
2023-05-25T04:58:55.834Z,4.44
2023-05-25T04:59:27.805Z,4.44
2023-05-25T05:00:00.209Z,4.44
2023-05-25T05:00:33.739Z,4.44
2023-05-25T05:01:03.931Z,4.44
2023-05-25T05:01:35.846Z,4.44
2023-05-25T05:02:07.843Z,4.44
2023-05-25T05:02:34.907Z,4.44
2023-05-25T05:02:55.931Z,4.44
2023-05-25T05:03:28.088Z,4.44
2023-05-25T05:03:59.992Z,4.55
2023-05-25T05:04:32.243Z,4.55
2023-05-25T05:05:04.176Z,4.55
2023-05-25T05:05:35.811Z,4.55
2023-05-25T05:06:07.840Z,4.60
2023-05-25T05:06:34.897Z,4.60
2023-05-25T05:06:58.039Z,4.60
2023-05-25T05:07:27.860Z,4.71
2023-05-25T05:07:59.803Z,4.71
2023-05-25T05:08:32.190Z,4.71
2023-05-25T05:09:03.954Z,4.71
2023-05-25T05:09:36.541Z,4.83
2023-05-25T05:10:08.270Z,4.93
2023-05-25T05:10:35.312Z,5.04
2023-05-25T05:10:56.043Z,5.09
2023-05-25T05:11:27.865Z,5.09
2023-05-25T05:11:59.824Z,5.20
2023-05-25T05:12:32.287Z,5.20
2023-05-25T05:13:03.949Z,5.04
2023-05-25T05:13:35.853Z,5.04
2023-05-25T05:14:07.803Z,5.04
2023-05-25T05:14:34.913Z,5.20
2023-05-25T05:14:55.836Z,5.04
2023-05-25T05:15:28.275Z,5.04
2023-05-25T05:16:00.630Z,5.15
2023-05-25T05:16:32.308Z,5.26
2023-05-25T05:17:03.979Z,5.37
2023-05-25T05:17:35.863Z,5.37
2023-05-25T05:18:07.876Z,5.37
2023-05-25T05:18:34.885Z,5.37
2023-05-25T05:18:55.844Z,5.42
2023-05-25T05:19:27.875Z,5.42
2023-05-25T05:19:59.909Z,5.42
2023-05-25T05:20:32.928Z,5.42
2023-05-25T05:21:03.947Z,5.42
2023-05-25T05:21:35.931Z,5.42
2023-05-25T05:22:07.864Z,5.53
2023-05-25T05:22:34.899Z,5.53
2023-05-25T05:22:55.788Z,5.53
2023-05-25T05:23:27.781Z,5.53
2023-05-25T05:23:59.839Z,5.53
2023-05-25T05:24:32.265Z,5.65
2023-05-25T05:25:04.220Z,5.65
2023-05-25T05:25:39.494Z,5.65
2023-05-25T05:26:07.812Z,5.75
2023-05-25T05:26:48.159Z,5.75
2023-05-25T05:26:58.780Z,5.86
2023-05-25T05:27:27.858Z,5.86
2023-05-25T05:27:59.950Z,5.70
2023-05-25T05:28:32.334Z,5.70
2023-05-25T05:29:03.930Z,5.75
2023-05-25T05:29:35.952Z,5.75
2023-05-25T05:30:08.447Z,5.86
2023-05-25T05:30:34.908Z,5.86
2023-05-25T05:30:56.054Z,5.97
2023-05-25T05:31:27.857Z,5.97
2023-05-25T05:32:00.632Z,5.81
2023-05-25T05:32:32.329Z,5.92
2023-05-25T05:33:04.090Z,6.02
2023-05-25T05:33:35.973Z,6.07
2023-05-25T05:34:07.945Z,6.02
2023-05-25T05:34:35.320Z,6.02
2023-05-25T05:34:55.857Z,6.13
2023-05-25T05:35:28.175Z,6.13
2023-05-25T05:35:59.837Z,6.13
2023-05-25T05:36:38.927Z,6.13
2023-05-25T05:37:03.948Z,5.96
2023-05-25T05:37:35.852Z,6.06
2023-05-25T05:38:07.821Z,6.17
2023-05-25T05:38:34.910Z,6.17
2023-05-25T05:38:55.817Z,6.15
2023-05-25T05:39:28.075Z,6.15
2023-05-25T05:39:59.895Z,6.27
2023-05-25T05:40:32.703Z,6.27
2023-05-25T05:41:03.939Z,6.38
2023-05-25T05:41:37.031Z,6.32
2023-05-25T05:42:07.934Z,6.32
2023-05-25T05:42:35.207Z,6.36
2023-05-25T05:42:55.945Z,6.36
2023-05-25T05:43:28.001Z,6.47
2023-05-25T05:43:59.915Z,6.47
2023-05-25T05:44:32.400Z,6.29
2023-05-25T05:45:04.532Z,6.29
2023-05-25T05:45:36.006Z,6.52
2023-05-25T05:46:08.190Z,6.62
2023-05-25T05:46:35.125Z,6.62
2023-05-25T05:46:55.918Z,6.49
2023-05-25T05:47:27.937Z,6.60
2023-05-25T05:48:01.024Z,6.54
2023-05-25T05:48:32.388Z,6.64
2023-05-25T05:49:04.091Z,6.82
2023-05-25T05:49:35.923Z,6.82
2023-05-25T05:50:08.316Z,6.82
2023-05-25T05:50:36.379Z,6.82
2023-05-25T05:50:56.181Z,6.64
2023-05-25T05:51:27.950Z,6.64
2023-05-25T05:52:00.356Z,6.56
2023-05-25T05:52:32.479Z,6.80
2023-05-25T05:53:04.054Z,6.71
2023-05-25T05:53:35.977Z,6.71
2023-05-25T05:54:07.979Z,6.71
2023-05-25T05:54:35.006Z,6.83
2023-05-25T05:54:55.906Z,6.83
2023-05-25T05:55:28.210Z,6.94
2023-05-25T05:55:59.942Z,6.86
2023-05-25T05:56:32.416Z,6.86
2023-05-25T05:57:04.022Z,7.04
2023-05-25T05:57:36.636Z,7.04
2023-05-25T05:58:08.012Z,6.91
2023-05-25T05:58:35.028Z,6.91
2023-05-25T05:58:55.929Z,6.91
2023-05-25T05:59:28.722Z,7.02
2023-05-25T06:00:03.284Z,7.02
2023-05-25T06:00:32.427Z,7.02
2023-05-25T06:01:04.067Z,6.83
2023-05-25T06:01:35.981Z,7.13
2023-05-25T06:02:09.080Z,6.94
2023-05-25T06:02:35.144Z,6.94
2023-05-25T06:02:56.122Z,7.05
2023-05-25T06:03:27.950Z,7.05
2023-05-25T06:04:00.686Z,7.24
2023-05-25T06:04:32.506Z,7.24
2023-05-25T06:05:04.475Z,7.13
2023-05-25T06:05:35.945Z,7.13
2023-05-25T06:06:08.217Z,7.13
2023-05-25T06:06:35.006Z,7.13
2023-05-25T06:06:55.943Z,7.13
2023-05-25T06:07:28.011Z,7.13
2023-05-25T06:07:59.940Z,7.13
2023-05-25T06:08:32.433Z,7.13
2023-05-25T06:09:04.031Z,7.32
2023-05-25T06:09:35.902Z,7.32
2023-05-25T06:10:08.298Z,7.09
2023-05-25T06:10:35.659Z,7.09
2023-05-25T06:10:56.141Z,7.09
2023-05-25T06:11:27.979Z,7.09
2023-05-25T06:11:59.951Z,7.09
2023-05-25T06:12:32.373Z,7.29
2023-05-25T06:13:04.038Z,7.09
2023-05-25T06:13:36.838Z,7.39
2023-05-25T06:14:07.995Z,7.20
2023-05-25T06:14:35.016Z,7.20
2023-05-25T06:14:56.226Z,7.32
2023-05-25T06:15:28.576Z,7.32
2023-05-25T06:15:59.917Z,7.24
2023-05-25T06:16:32.636Z,7.24
2023-05-25T06:17:04.287Z,7.42
2023-05-25T06:17:36.061Z,7.24
2023-05-25T06:18:08.077Z,7.24
2023-05-25T06:18:35.002Z,7.24
2023-05-25T06:18:55.894Z,7.24
2023-05-25T06:19:28.099Z,7.35
2023-05-25T06:20:02.958Z,7.35
2023-05-25T06:20:32.549Z,7.35
2023-05-25T06:21:04.031Z,7.35
2023-05-25T06:21:35.934Z,7.15
2023-05-25T06:22:08.015Z,7.40
2023-05-25T06:22:35.500Z,7.20
2023-05-25T06:22:55.910Z,7.50
2023-05-25T06:23:27.960Z,7.31
2023-05-25T06:23:59.916Z,7.50
2023-05-25T06:24:32.383Z,7.42
2023-05-25T06:25:04.286Z,7.42
2023-05-25T06:25:35.953Z,7.53
2023-05-25T06:26:07.984Z,7.53
2023-05-25T06:26:35.004Z,7.53
2023-05-25T06:26:56.298Z,7.64
2023-05-25T06:27:27.920Z,7.49
2023-05-25T06:27:59.919Z,7.51
2023-05-25T06:28:32.357Z,7.61
2023-05-25T06:29:03.980Z,7.61
2023-05-25T06:29:36.710Z,7.61
2023-05-25T06:30:08.607Z,7.72
2023-05-25T06:30:35.931Z,7.72
2023-05-25T06:30:56.322Z,7.77
2023-05-25T06:31:29.843Z,7.77
2023-05-25T06:31:59.984Z,7.77
2023-05-25T06:32:32.443Z,7.72
2023-05-25T06:33:04.135Z,7.72
2023-05-25T06:33:37.779Z,7.77
2023-05-25T06:34:07.992Z,7.77
2023-05-25T06:34:37.313Z,7.77
2023-05-25T06:34:56.725Z,7.77
2023-05-25T06:35:29.512Z,7.77
2023-05-25T06:36:00.703Z,7.87
2023-05-25T06:36:32.564Z,7.68
2023-05-25T06:37:04.017Z,7.68
2023-05-25T06:37:35.938Z,7.79
2023-05-25T06:38:07.981Z,7.90
2023-05-25T06:38:35.192Z,7.90
2023-05-25T06:38:55.921Z,7.60
2023-05-25T06:39:27.959Z,7.60